createdAt,value
2023-03-23T15:58:35.794Z,1.70
2023-03-23T16:01:17.126Z,2.15
2023-03-23T16:03:50.197Z,2.90
2023-03-23T16:06:24.616Z,5.80
2023-03-23T16:08:54.819Z,4.97
2023-03-23T16:11:22.500Z,2.45
2023-03-23T16:13:49.709Z,2.20
2023-03-23T16:16:28.088Z,2.08
2023-03-23T16:18:55.187Z,2.22
2023-03-23T16:21:22.548Z,2.13
2023-03-23T16:23:49.311Z,4.00
2023-03-23T16:26:16.415Z,5.25
2023-03-23T16:28:43.702Z,4.22
2023-03-23T16:31:10.704Z,2.58
2023-03-23T16:33:37.460Z,2.90
2023-03-23T16:36:04.771Z,2.10
2023-03-23T16:38:31.658Z,2.30
2023-03-23T16:40:58.353Z,2.03
2023-03-23T16:43:25.259Z,2.25
2023-03-23T16:45:56.169Z,2.30
2023-03-23T16:48:23.382Z,1.92
2023-03-23T16:50:52.360Z,2.60
2023-03-23T16:53:19.111Z,3.10
2023-03-23T16:55:48.199Z,7.53
2023-03-23T16:58:17.813Z,3.92
2023-03-23T17:00:48.940Z,2.63
2023-03-23T17:03:16.972Z,2.20
2023-03-23T17:05:44.877Z,2.20
2023-03-23T17:08:12.236Z,2.33
2023-03-23T17:10:40.152Z,2.60
2023-03-23T17:13:07.362Z,2.25
2023-03-23T17:15:37.287Z,2.70
2023-03-23T17:18:04.519Z,2.80
2023-03-23T17:20:31.440Z,3.20
2023-03-23T17:22:59.616Z,9.23
2023-03-23T17:25:27.766Z,5.45
2023-03-23T17:27:54.446Z,3.38
2023-03-23T17:30:21.303Z,5.07
2023-03-23T17:32:48.768Z,3.08
2023-03-23T17:35:16.405Z,3.30
2023-03-23T17:37:43.494Z,4.93
2023-03-23T17:40:11.101Z,4.75
2023-03-23T17:42:38.521Z,5.97
2023-03-23T17:45:07.248Z,5.88
2023-03-23T17:47:34.818Z,5.50
2023-03-23T17:50:11.496Z,5.65
2023-03-23T17:52:40.376Z,6.55
2023-03-23T17:55:07.881Z,6.07
2023-03-23T17:57:35.118Z,5.00
2023-03-23T18:00:02.783Z,4.43
2023-03-23T18:02:33.760Z,5.72
2023-03-23T18:05:00.576Z,4.68
2023-03-23T18:07:27.859Z,5.28
2023-03-23T18:09:59.259Z,4.90
2023-03-23T18:12:26.277Z,4.63
2023-03-23T18:14:57.749Z,5.32
2023-03-23T18:17:24.744Z,6.00
2023-03-23T18:19:51.610Z,6.60
2023-03-23T18:22:18.304Z,5.03
2023-03-23T18:24:45.653Z,14.90
2023-03-23T18:27:12.298Z,7.78
2023-03-23T18:29:39.004Z,3.88
2023-03-23T18:32:07.927Z,8.15
2023-03-23T18:34:36.581Z,9.00
2023-03-23T18:37:04.046Z,8.27
2023-03-23T18:39:33.918Z,7.97
2023-03-23T18:42:00.980Z,10.00
2023-03-23T18:44:27.764Z,14.70
2023-03-23T18:46:54.485Z,12.80
2023-03-23T18:49:21.241Z,7.35
2023-03-23T18:51:47.952Z,3.90
2023-03-23T18:54:14.898Z,10.43
2023-03-23T18:56:41.591Z,13.27
2023-03-23T18:59:08.386Z,11.02
2023-03-23T19:01:35.289Z,5.55
2023-03-23T19:04:02.473Z,3.30
2023-03-23T19:06:35.224Z,3.13
2023-03-23T19:09:02.399Z,3.33
2023-03-23T19:11:29.149Z,3.60
2023-03-23T19:14:02.555Z,3.60
2023-03-23T19:16:32.090Z,3.30
2023-03-23T19:19:00.647Z,3.17
2023-03-23T19:21:29.845Z,3.70
2023-03-23T19:23:58.066Z,4.28
2023-03-23T19:26:31.156Z,3.75
2023-03-23T19:31:29.330Z,3.45
2023-03-23T19:33:56.040Z,4.60
2023-03-23T19:36:24.286Z,5.57
2023-03-23T19:38:51.704Z,3.60
2023-03-23T19:41:19.268Z,5.38
2023-03-23T19:43:46.165Z,3.88
2023-03-23T19:46:14.272Z,3.00
2023-03-23T19:48:41.697Z,3.00
2023-03-23T19:51:10.213Z,3.70
2023-03-23T19:53:37.001Z,3.75
2023-03-23T19:56:05.139Z,4.18
2023-03-23T19:58:32.461Z,4.15
2023-03-23T20:01:00.939Z,3.75
2023-03-23T20:03:28.474Z,4.35
2023-03-23T20:06:03.493Z,4.13
2023-03-23T20:08:31.388Z,5.07
2023-03-23T20:11:06.255Z,4.20
2023-03-23T20:13:33.207Z,4.53
2023-03-23T20:16:00.894Z,4.57
2023-03-23T20:18:29.694Z,4.80
2023-03-23T20:21:04.453Z,4.63
2023-03-23T20:23:31.456Z,4.40
2023-03-23T20:26:04.419Z,4.15
2023-03-23T20:28:31.133Z,5.32
2023-03-23T20:31:19.591Z,5.20
2023-03-23T20:34:00.630Z,5.43
2023-03-23T20:36:35.688Z,3.95
2023-03-23T20:39:14.367Z,3.90
2023-03-23T20:41:41.525Z,4.63
2023-03-23T20:44:13.861Z,5.05
2023-03-23T20:46:42.075Z,5.55
2023-03-23T20:49:10.001Z,6.25
2023-03-23T20:51:37.153Z,5.10
2023-03-23T20:54:04.842Z,5.18
2023-03-23T20:56:32.606Z,6.32
2023-03-23T20:58:59.516Z,5.88
2023-03-23T21:01:26.332Z,4.97
2023-03-23T21:03:56.744Z,5.90
2023-03-23T21:06:28.086Z,4.25
2023-03-23T21:08:56.480Z,3.17
2023-03-23T21:11:25.240Z,3.33
2023-03-23T21:13:53.044Z,3.28
2023-03-23T21:16:20.004Z,3.15
2023-03-23T21:18:47.583Z,3.20
2023-03-23T21:21:14.961Z,4.53
2023-03-23T21:23:47.079Z,5.72
2023-03-23T21:26:16.778Z,5.10
2023-03-23T21:28:44.646Z,5.05
2023-03-23T21:31:12.341Z,5.10
2023-03-23T21:33:39.403Z,4.65
2023-03-23T21:36:06.900Z,4.28
2023-03-23T21:38:33.827Z,4.40
2023-03-23T21:41:07.288Z,4.13
2023-03-23T21:43:34.364Z,4.35
2023-03-23T21:46:04.858Z,4.30
2023-03-23T21:48:32.998Z,3.95
2023-03-23T21:51:05.955Z,4.15
2023-03-23T21:53:36.583Z,3.90
2023-03-23T21:56:05.631Z,5.50
2023-03-23T21:58:32.582Z,4.28
2023-03-23T22:01:01.143Z,5.68
2023-03-23T22:03:32.555Z,4.90
2023-03-23T22:06:06.618Z,5.05
2023-03-23T22:08:33.582Z,4.18
2023-03-23T22:11:02.568Z,5.43
2023-03-23T22:13:31.229Z,3.92
2023-03-23T22:16:00.768Z,3.80
2023-03-23T22:18:28.084Z,3.67
2023-03-23T22:20:54.716Z,3.03
2023-03-23T22:23:21.633Z,3.60
2023-03-23T22:25:48.370Z,3.75
2023-03-23T22:28:15.353Z,4.10
2023-03-23T22:30:41.986Z,4.18
2023-03-23T22:33:08.622Z,4.32
2023-03-23T22:35:35.834Z,4.00
2023-03-23T22:38:03.231Z,3.92
2023-03-23T22:40:31.842Z,3.55
2023-03-23T22:42:58.631Z,3.80
2023-03-23T22:45:27.207Z,3.83
2023-03-23T22:47:54.147Z,4.88
2023-03-23T22:50:21.509Z,4.40
2023-03-23T22:52:48.438Z,4.32
2023-03-23T22:55:15.284Z,3.95
2023-03-23T22:57:42.150Z,4.40
2023-03-23T23:00:15.047Z,3.83
2023-03-23T23:02:42.918Z,4.50
2023-03-23T23:05:11.348Z,4.90
2023-03-23T23:07:38.510Z,4.10
2023-03-23T23:10:06.281Z,4.13
2023-03-23T23:12:35.060Z,3.90
2023-03-23T23:15:04.358Z,4.30
2023-03-23T23:17:34.625Z,4.43
2023-03-23T23:20:05.851Z,4.97
2023-03-23T23:22:33.620Z,5.00
2023-03-23T23:25:01.036Z,4.63
2023-03-23T23:27:27.825Z,5.50
2023-03-23T23:29:54.593Z,5.22
2023-03-23T23:32:21.290Z,4.53
2023-03-23T23:34:48.439Z,4.75
2023-03-23T23:37:15.396Z,4.95
2023-03-23T23:39:42.342Z,4.90
2023-03-23T23:42:09.063Z,4.63
2023-03-23T23:44:35.837Z,4.70
2023-03-23T23:47:02.609Z,4.70
2023-03-23T23:49:29.388Z,4.25
2023-03-23T23:51:56.495Z,4.78
2023-03-23T23:54:30.341Z,4.60
2023-03-23T23:57:01.439Z,4.40
2023-03-23T23:59:28.873Z,4.72
